createdAt,value
2018-02-22T00:00:37.704Z,91.08
2018-02-22T00:05:36.006Z,90.73
2018-02-22T00:08:01.783Z,91.11
2018-02-22T00:10:27.548Z,92.77
2018-02-22T00:12:53.297Z,92.85
2018-02-22T00:15:19.060Z,91.41
2018-02-22T00:17:44.823Z,91.83
2018-02-22T00:20:10.591Z,92.81
2018-02-22T00:22:36.363Z,92.28
2018-02-22T00:25:02.148Z,91.32
2018-02-22T00:27:28.083Z,90.98
2018-02-22T00:29:53.847Z,91.07
2018-02-22T00:32:19.599Z,91.87
2018-02-22T00:34:45.362Z,92.84
2018-02-22T00:37:11.120Z,92.91
2018-02-22T00:39:36.907Z,93.00
2018-02-22T00:42:02.658Z,91.55
2018-02-22T00:44:28.431Z,91.13
2018-02-22T00:46:54.246Z,91.12
2018-02-22T00:49:20.008Z,91.25
2018-02-22T00:51:45.772Z,91.96
2018-02-22T00:54:11.577Z,91.96
2018-02-22T00:56:37.350Z,92.53
2018-02-22T00:59:03.107Z,92.75
2018-02-22T01:01:28.874Z,92.30
2018-02-22T01:03:54.640Z,90.97
2018-02-22T01:06:20.403Z,91.35
2018-02-22T01:08:46.155Z,91.07
2018-02-22T01:11:11.915Z,90.91
2018-02-22T01:13:37.668Z,91.31
2018-02-22T01:16:03.439Z,92.78
2018-02-22T01:18:29.195Z,92.87
2018-02-22T01:20:55.011Z,93.19
2018-02-22T01:23:20.767Z,93.57
2018-02-22T01:25:46.548Z,93.92
2018-02-22T01:28:12.307Z,93.67
2018-02-22T01:30:38.148Z,92.92
2018-02-22T01:33:03.888Z,91.91
2018-02-22T01:35:29.656Z,92.82
2018-02-22T01:37:55.423Z,93.29
2018-02-22T01:40:21.191Z,93.48
2018-02-22T01:42:46.961Z,93.09
2018-02-22T01:45:12.729Z,92.11
2018-02-22T01:47:38.497Z,91.55
2018-02-22T01:50:04.268Z,92.35
2018-02-22T01:52:30.033Z,92.88
2018-02-22T01:54:55.842Z,93.08
2018-02-22T01:57:21.656Z,91.73
2018-02-22T01:59:47.424Z,91.40
2018-02-22T02:02:13.191Z,91.05
2018-02-22T02:04:38.934Z,91.37
2018-02-22T02:07:04.695Z,91.44
2018-02-22T02:09:30.456Z,91.21
2018-02-22T02:11:56.218Z,91.36
2018-02-22T02:14:21.980Z,91.21
2018-02-22T02:16:47.756Z,91.11
2018-02-22T02:19:13.511Z,91.46
2018-02-22T02:21:39.332Z,92.09
2018-02-22T02:24:05.084Z,91.64
2018-02-22T02:26:30.845Z,91.92
2018-02-22T02:28:56.618Z,92.47
2018-02-22T02:31:22.375Z,93.53
2018-02-22T02:33:48.130Z,93.96
2018-02-22T02:36:13.900Z,94.11
2018-02-22T02:38:39.671Z,93.83
2018-02-22T02:41:05.451Z,93.57
2018-02-22T02:43:31.248Z,93.89
2018-02-22T02:45:56.995Z,94.11
2018-02-22T02:48:22.765Z,94.32
2018-02-22T02:50:48.533Z,94.27
2018-02-22T02:53:14.307Z,94.33
2018-02-22T02:55:40.052Z,93.88
2018-02-22T02:58:05.825Z,93.13
2018-02-22T03:00:31.597Z,92.32
2018-02-22T03:02:57.361Z,92.22
2018-02-22T03:05:23.131Z,91.98
2018-02-22T03:07:48.912Z,93.43
2018-02-22T03:10:14.685Z,93.67
2018-02-22T03:12:40.434Z,92.87
2018-02-22T03:15:06.214Z,92.62
2018-02-22T03:17:31.975Z,93.07
2018-02-22T03:19:57.989Z,91.90
2018-02-22T03:22:23.731Z,92.46
2018-02-22T03:24:49.492Z,92.91
2018-02-22T03:27:15.256Z,93.16
2018-02-22T03:29:41.030Z,93.38
2018-02-22T03:32:06.791Z,93.60
2018-02-22T03:34:32.572Z,94.40
2018-02-22T03:36:58.338Z,94.89
2018-02-22T03:39:24.112Z,94.98
2018-02-22T03:41:49.868Z,94.97
2018-02-22T03:44:15.659Z,95.08
2018-02-22T03:46:41.418Z,95.09
2018-02-22T03:49:07.194Z,95.27
2018-02-22T03:51:32.942Z,95.10
2018-02-22T03:53:58.703Z,94.65
2018-02-22T03:56:24.471Z,94.57
2018-02-22T03:58:50.263Z,94.06
2018-02-22T04:01:16.034Z,93.87
2018-02-22T04:03:41.795Z,94.01
2018-02-22T04:06:07.573Z,93.54
2018-02-22T04:08:33.337Z,93.95
2018-02-22T04:11:00.093Z,94.34
2018-02-22T04:13:25.864Z,94.41
2018-02-22T04:15:51.648Z,94.41
2018-02-22T04:18:17.456Z,94.39
2018-02-22T04:20:43.200Z,94.21
2018-02-22T04:23:08.961Z,95.05
2018-02-22T04:25:34.731Z,94.72
2018-02-22T04:28:00.499Z,93.72
2018-02-22T04:30:26.273Z,93.39
2018-02-22T04:32:52.039Z,92.78
2018-02-22T04:35:17.820Z,93.41
2018-02-22T04:37:43.579Z,93.16
2018-02-22T04:40:09.351Z,93.20
2018-02-22T04:42:35.114Z,92.68
2018-02-22T04:45:00.888Z,92.63
2018-02-22T04:47:26.660Z,92.40
2018-02-22T04:49:52.418Z,92.50
2018-02-22T04:52:18.208Z,93.01
2018-02-22T04:54:43.954Z,93.15
2018-02-22T04:57:09.727Z,93.96
2018-02-22T04:59:36.293Z,94.48
2018-02-22T05:02:02.068Z,94.75
2018-02-22T05:04:27.823Z,94.89
2018-02-22T05:06:53.592Z,95.08
2018-02-22T05:09:19.343Z,94.99
2018-02-22T05:11:45.106Z,94.87
2018-02-22T05:14:10.880Z,94.63
2018-02-22T05:16:36.643Z,94.27
2018-02-22T05:19:02.398Z,94.58
2018-02-22T05:21:28.151Z,95.17
2018-02-22T05:23:53.908Z,95.39
2018-02-22T05:26:19.676Z,95.53
2018-02-22T05:28:45.418Z,95.46
2018-02-22T05:31:11.179Z,94.97
2018-02-22T05:33:36.935Z,94.43
2018-02-22T05:36:02.682Z,94.03
2018-02-22T05:38:28.450Z,94.01
2018-02-22T05:40:54.194Z,94.03
2018-02-22T05:43:19.968Z,94.23
2018-02-22T05:45:45.712Z,94.59
2018-02-22T05:48:11.472Z,94.79
2018-02-22T05:50:37.216Z,95.29
2018-02-22T05:53:02.972Z,95.68
2018-02-22T05:55:28.699Z,95.76
2018-02-22T05:57:54.471Z,95.25
2018-02-22T06:00:20.227Z,95.05
2018-02-22T06:02:45.975Z,94.74
2018-02-22T06:05:11.728Z,93.98
2018-02-22T06:07:37.487Z,94.33
2018-02-22T06:10:03.248Z,94.64
2018-02-22T06:12:29.011Z,93.87
2018-02-22T06:14:54.768Z,93.33
2018-02-22T06:17:20.523Z,93.75
2018-02-22T06:19:46.263Z,94.19
2018-02-22T06:22:12.012Z,94.31
2018-02-22T06:24:37.751Z,94.17
2018-02-22T06:27:03.491Z,93.26
2018-02-22T06:29:29.243Z,93.07
2018-02-22T06:31:55.006Z,93.19
2018-02-22T06:34:20.767Z,93.54
2018-02-22T06:36:46.524Z,93.17
2018-02-22T06:39:12.299Z,93.24
2018-02-22T06:41:38.044Z,94.14
2018-02-22T06:44:03.798Z,94.15
2018-02-22T06:46:29.544Z,93.55
2018-02-22T06:48:55.310Z,94.05
2018-02-22T06:51:21.064Z,93.49
2018-02-22T06:53:46.815Z,93.39
2018-02-22T06:56:12.556Z,93.24
2018-02-22T06:58:38.319Z,93.02
2018-02-22T07:01:04.090Z,93.65
2018-02-22T07:03:29.860Z,93.85
2018-02-22T07:05:55.640Z,93.62
2018-02-22T07:08:21.363Z,94.26
2018-02-22T07:10:47.139Z,94.40
2018-02-22T07:13:12.894Z,94.35
2018-02-22T07:15:38.655Z,94.91
2018-02-22T07:18:04.430Z,95.08
2018-02-22T07:20:30.197Z,95.08
2018-02-22T07:22:55.968Z,94.39
2018-02-22T07:25:21.739Z,94.41
2018-02-22T07:27:47.719Z,94.48
2018-02-22T07:30:13.496Z,94.41
2018-02-22T07:32:39.263Z,94.14
2018-02-22T07:35:05.054Z,94.32
2018-02-22T07:37:30.803Z,94.19
2018-02-22T07:39:56.568Z,94.42
2018-02-22T07:42:22.324Z,94.25
2018-02-22T07:44:48.084Z,94.22
2018-02-22T07:47:13.835Z,93.98
2018-02-22T07:49:39.599Z,93.59
2018-02-22T07:52:05.353Z,93.84
2018-02-22T07:54:31.124Z,93.83
2018-02-22T07:56:56.881Z,94.07
2018-02-22T07:59:22.646Z,93.86
2018-02-22T08:01:48.403Z,93.77
2018-02-22T08:04:14.146Z,93.86
2018-02-22T08:06:39.894Z,93.54
2018-02-22T08:09:05.652Z,93.63
2018-02-22T08:11:31.429Z,93.67
2018-02-22T08:13:57.190Z,93.45
2018-02-22T08:16:22.943Z,93.74
2018-02-22T08:18:48.693Z,93.45
2018-02-22T08:21:14.459Z,93.57
2018-02-22T08:23:40.219Z,93.58
2018-02-22T08:26:05.993Z,93.75
2018-02-22T08:28:31.740Z,93.44
2018-02-22T08:30:57.514Z,93.65
2018-02-22T08:33:23.272Z,93.44
2018-02-22T08:35:49.051Z,93.69
2018-02-22T08:38:14.875Z,93.81
2018-02-22T08:40:40.639Z,93.44
2018-02-22T08:43:06.399Z,93.05
2018-02-22T08:45:32.159Z,92.74
2018-02-22T08:47:57.939Z,92.78
2018-02-22T08:50:23.676Z,93.22
2018-02-22T08:52:49.428Z,93.05
2018-02-22T08:55:15.181Z,92.93
2018-02-22T08:57:40.951Z,92.62
2018-02-22T09:00:06.711Z,92.83
2018-02-22T09:02:32.478Z,93.11
2018-02-22T09:04:58.260Z,92.87
2018-02-22T09:07:24.028Z,92.77
2018-02-22T09:09:49.774Z,92.76
2018-02-22T09:12:15.527Z,92.51
2018-02-22T09:14:41.272Z,92.99
2018-02-22T09:17:07.011Z,92.72
2018-02-22T09:19:32.748Z,92.73
2018-02-22T09:21:58.488Z,92.19
2018-02-22T09:24:24.239Z,92.33
2018-02-22T09:26:50.007Z,92.16
2018-02-22T09:29:15.796Z,92.19
2018-02-22T09:31:41.544Z,91.56
2018-02-22T09:34:07.307Z,90.94
2018-02-22T09:36:33.123Z,91.58
2018-02-22T09:38:58.822Z,91.55
2018-02-22T09:41:24.569Z,91.28
2018-02-22T09:43:50.333Z,91.41
2018-02-22T09:46:16.102Z,91.61
2018-02-22T09:48:41.880Z,91.39
2018-02-22T09:51:07.640Z,91.67
2018-02-22T09:53:33.410Z,91.55
2018-02-22T09:55:59.163Z,91.34
2018-02-22T09:58:24.976Z,91.33
2018-02-22T10:00:50.782Z,91.31
2018-02-22T10:03:16.511Z,91.09
2018-02-22T10:05:42.269Z,91.16
2018-02-22T10:08:08.031Z,91.02
2018-02-22T10:10:33.796Z,90.83
2018-02-22T10:12:59.559Z,90.46
2018-02-22T10:15:25.316Z,90.19
2018-02-22T10:17:51.068Z,90.87
2018-02-22T10:20:16.820Z,90.59
2018-02-22T10:22:42.576Z,90.35
2018-02-22T10:25:08.346Z,90.34
2018-02-22T10:27:34.100Z,90.23
2018-02-22T10:29:59.855Z,89.37
2018-02-22T10:32:25.598Z,88.47
2018-02-22T10:34:51.358Z,89.48
2018-02-22T10:37:17.108Z,88.97
2018-02-22T10:39:43.127Z,89.14
2018-02-22T10:42:08.886Z,88.61
2018-02-22T10:44:34.623Z,88.74
2018-02-22T10:47:00.402Z,88.99
2018-02-22T10:49:26.158Z,88.29
2018-02-22T10:51:51.927Z,88.67
2018-02-22T10:54:17.682Z,86.36
2018-02-22T10:56:43.441Z,86.20
2018-02-22T10:59:09.215Z,85.58
2018-02-22T11:01:41.164Z,85.58
2018-02-22T11:04:06.905Z,86.45
2018-02-22T11:06:32.699Z,87.64
2018-02-22T11:08:58.462Z,87.54
2018-02-22T11:11:24.238Z,87.07
2018-02-22T11:13:49.996Z,87.58
2018-02-22T11:16:15.768Z,87.59
2018-02-22T11:18:41.563Z,87.51
2018-02-22T11:21:07.350Z,87.14
2018-02-22T11:23:33.123Z,87.50
2018-02-22T11:25:58.879Z,86.55
2018-02-22T11:28:24.645Z,85.34
2018-02-22T11:30:50.429Z,87.05
2018-02-22T11:33:16.203Z,87.31
2018-02-22T11:35:41.964Z,87.93
2018-02-22T11:38:07.750Z,87.87
2018-02-22T11:40:33.511Z,87.93
2018-02-22T11:42:59.301Z,88.11
2018-02-22T11:45:25.060Z,88.01
2018-02-22T11:47:50.836Z,87.43
2018-02-22T11:50:16.603Z,87.78
2018-02-22T11:52:42.378Z,87.70
2018-02-22T11:55:08.143Z,87.12
2018-02-22T11:57:33.923Z,87.69
2018-02-22T11:59:59.708Z,87.48
2018-02-22T12:02:25.483Z,87.78
2018-02-22T12:04:51.244Z,87.31
2018-02-22T12:07:17.024Z,87.47
2018-02-22T12:09:42.780Z,87.97
2018-02-22T12:12:08.556Z,87.46
2018-02-22T12:14:34.322Z,87.37
2018-02-22T12:17:00.092Z,88.03
2018-02-22T12:19:25.875Z,87.61
2018-02-22T12:21:51.637Z,87.62
2018-02-22T12:24:17.419Z,88.46
2018-02-22T12:26:43.171Z,88.01
2018-02-22T12:29:08.951Z,88.13
2018-02-22T12:31:34.703Z,88.47
2018-02-22T12:34:00.470Z,88.77
2018-02-22T12:36:26.226Z,88.47
2018-02-22T12:38:51.999Z,88.79
2018-02-22T12:41:17.768Z,89.08
2018-02-22T12:43:43.539Z,89.33
2018-02-22T12:46:09.303Z,89.50
2018-02-22T12:48:35.070Z,89.61
2018-02-22T12:51:00.839Z,89.74
2018-02-22T12:53:26.616Z,89.91
2018-02-22T12:55:52.386Z,89.85
2018-02-22T12:58:18.144Z,89.65
2018-02-22T13:00:44.071Z,89.77
2018-02-22T13:03:09.845Z,89.88
2018-02-22T13:05:35.621Z,90.10
2018-02-22T13:08:01.380Z,90.62
2018-02-22T13:10:27.166Z,90.34
2018-02-22T13:12:52.936Z,90.65
2018-02-22T13:15:18.744Z,90.14
2018-02-22T13:17:44.510Z,90.21
2018-02-22T13:20:10.284Z,89.89
2018-02-22T13:22:36.038Z,89.94
2018-02-22T13:25:01.802Z,89.33
2018-02-22T13:27:27.562Z,89.08
2018-02-22T13:29:53.335Z,88.96
2018-02-22T13:32:19.094Z,87.98
2018-02-22T13:34:44.871Z,88.17
2018-02-22T13:37:23.218Z,88.55
2018-02-22T13:39:48.987Z,89.05
2018-02-22T13:42:14.797Z,89.29
2018-02-22T13:44:52.957Z,88.22
2018-02-22T13:47:18.706Z,87.29
2018-02-22T13:52:43.447Z,85.80
2018-02-22T13:55:09.248Z,86.50
2018-02-22T13:57:35.003Z,87.37
2018-02-22T14:00:00.764Z,86.77
2018-02-22T14:02:26.546Z,86.69
2018-02-22T14:04:52.311Z,85.94
2018-02-22T14:07:18.085Z,85.97
2018-02-22T14:09:43.843Z,86.23
2018-02-22T14:12:09.621Z,86.91
2018-02-22T14:14:35.383Z,87.40
2018-02-22T14:17:01.152Z,86.35
2018-02-22T14:19:26.925Z,86.94
2018-02-22T14:21:52.703Z,87.02
2018-02-22T14:24:18.466Z,86.19
2018-02-22T14:26:44.236Z,86.68
2018-02-22T14:29:10.008Z,86.74
2018-02-22T14:31:35.796Z,86.06
2018-02-22T14:34:01.563Z,86.84
2018-02-22T14:36:27.326Z,86.02
2018-02-22T14:38:53.134Z,85.60
2018-02-22T14:41:18.859Z,85.61
2018-02-22T14:43:44.636Z,86.32
2018-02-22T14:46:10.420Z,86.65
2018-02-22T14:48:36.183Z,87.07
2018-02-22T14:51:01.927Z,87.13
2018-02-22T14:53:27.692Z,87.62
2018-02-22T14:55:53.480Z,87.07
2018-02-22T14:58:19.253Z,87.68
2018-02-22T15:00:51.183Z,87.45
2018-02-22T15:03:16.947Z,87.60
2018-02-22T15:05:42.726Z,86.77
2018-02-22T15:08:08.499Z,86.94
2018-02-22T15:10:34.256Z,87.33
2018-02-22T15:13:00.031Z,86.69
2018-02-22T15:15:25.790Z,86.57
2018-02-22T15:17:51.551Z,86.23
2018-02-22T15:20:17.304Z,85.65
2018-02-22T15:22:43.076Z,85.86
2018-02-22T15:25:08.851Z,85.98
2018-02-22T15:27:34.612Z,85.21
2018-02-22T15:30:00.377Z,85.44
2018-02-22T15:32:26.147Z,85.88
2018-02-22T15:34:51.903Z,85.64
2018-02-22T15:37:17.659Z,85.80
2018-02-22T15:39:43.444Z,86.03
2018-02-22T15:42:09.210Z,85.77
2018-02-22T15:44:34.991Z,85.77
2018-02-22T15:47:00.748Z,85.58
2018-02-22T15:49:26.528Z,85.49
2018-02-22T15:51:52.295Z,85.00
2018-02-22T15:54:18.088Z,85.14
2018-02-22T15:56:43.852Z,85.44
2018-02-22T15:59:09.628Z,85.53
2018-02-22T16:01:35.366Z,85.68
2018-02-22T16:04:01.164Z,85.56
2018-02-22T16:06:26.903Z,85.69
2018-02-22T16:08:52.680Z,85.82
2018-02-22T16:11:18.447Z,85.93
2018-02-22T16:13:44.235Z,86.48
2018-02-22T16:16:09.991Z,86.05
2018-02-22T16:18:35.764Z,86.16
2018-02-22T16:21:01.542Z,85.94
2018-02-22T16:23:27.336Z,86.21
2018-02-22T16:25:53.091Z,86.46
2018-02-22T16:28:18.847Z,86.31
2018-02-22T16:30:44.675Z,86.84
2018-02-22T16:33:10.460Z,87.29
2018-02-22T16:35:36.245Z,87.52
2018-02-22T16:38:02.003Z,87.91
2018-02-22T16:40:27.841Z,88.25
2018-02-22T16:42:53.551Z,88.67
2018-02-22T16:45:19.316Z,89.14
2018-02-22T16:47:45.076Z,89.38
2018-02-22T16:50:10.864Z,89.62
2018-02-22T16:52:36.623Z,89.96
2018-02-22T16:55:02.399Z,90.45
2018-02-22T16:57:28.156Z,90.49
2018-02-22T16:59:53.934Z,90.57
2018-02-22T17:02:19.691Z,90.77
2018-02-22T17:04:45.468Z,90.81
2018-02-22T17:07:11.238Z,90.82
2018-02-22T17:09:37.027Z,90.93
2018-02-22T17:12:02.777Z,91.10
2018-02-22T17:14:28.550Z,91.38
2018-02-22T17:16:54.332Z,91.48
2018-02-22T17:19:20.096Z,91.59
2018-02-22T17:21:45.876Z,91.67
2018-02-22T17:24:11.640Z,91.75
2018-02-22T17:26:43.486Z,91.81
2018-02-22T17:29:15.580Z,92.01
2018-02-22T17:31:47.463Z,92.22
2018-02-22T17:34:13.292Z,92.38
2018-02-22T17:36:44.995Z,92.51
2018-02-22T17:39:14.740Z,92.72
2018-02-22T17:41:41.381Z,92.73
2018-02-22T17:44:07.167Z,92.62
2018-02-22T17:46:32.943Z,92.66
2018-02-22T17:48:58.703Z,92.48
2018-02-22T17:51:24.477Z,92.38
2018-02-22T17:53:51.273Z,92.03
2018-02-22T17:56:17.119Z,91.84
2018-02-22T17:58:42.915Z,92.09
2018-02-22T18:01:09.055Z,92.00
2018-02-22T18:03:34.860Z,91.89
2018-02-22T18:06:01.419Z,91.63
2018-02-22T18:08:27.202Z,91.56
2018-02-22T18:10:52.989Z,91.46
2018-02-22T18:13:18.751Z,91.41
2018-02-22T18:15:44.544Z,91.39
2018-02-22T18:18:13.155Z,91.45
2018-02-22T18:20:38.984Z,91.24
2018-02-22T18:23:04.763Z,91.43
2018-02-22T18:25:30.555Z,91.66
2018-02-22T18:27:56.331Z,91.59
2018-02-22T18:30:22.178Z,91.84
2018-02-22T18:32:47.963Z,91.72
2018-02-22T18:35:13.829Z,91.69
2018-02-22T18:37:45.763Z,91.58
2018-02-22T18:40:17.592Z,90.87
2018-02-22T18:42:49.299Z,90.46
2018-02-22T18:45:15.196Z,91.04
2018-02-22T18:47:41.082Z,91.05
2018-02-22T18:50:06.843Z,91.84
2018-02-22T18:52:32.608Z,92.02
2018-02-22T18:54:58.372Z,91.69
2018-02-22T18:57:24.164Z,91.68
2018-02-22T18:59:49.932Z,91.70
2018-02-22T19:02:15.706Z,91.66
2018-02-22T19:04:41.461Z,91.68
2018-02-22T19:07:07.244Z,91.86
2018-02-22T19:09:33.005Z,91.85
2018-02-22T19:11:58.796Z,91.81
2018-02-22T19:14:24.552Z,92.22
2018-02-22T19:16:50.314Z,92.25
2018-02-22T19:19:16.095Z,92.16
2018-02-22T19:21:41.839Z,92.44
2018-02-22T19:24:07.616Z,92.39
2018-02-22T19:26:33.384Z,92.49
2018-02-22T19:28:59.154Z,92.68
2018-02-22T19:31:24.931Z,92.69
2018-02-22T19:33:50.699Z,92.64
2018-02-22T19:36:16.706Z,92.62
2018-02-22T19:38:42.583Z,92.34
2018-02-22T19:41:08.560Z,92.36
2018-02-22T19:43:34.528Z,92.29
2018-02-22T19:46:00.372Z,92.29
2018-02-22T19:48:26.473Z,92.49
2018-02-22T19:50:52.419Z,92.24
2018-02-22T19:53:18.308Z,92.63
2018-02-22T19:55:44.072Z,92.48
2018-02-22T19:58:09.846Z,92.29
2018-02-22T20:00:35.642Z,92.24
2018-02-22T20:03:01.745Z,92.41
2018-02-22T20:05:27.532Z,92.08
2018-02-22T20:07:53.301Z,91.88
2018-02-22T20:10:19.080Z,91.70
2018-02-22T20:12:44.845Z,91.53
2018-02-22T20:15:10.619Z,91.24
2018-02-22T20:17:36.379Z,91.04
2018-02-22T20:20:02.143Z,91.03
2018-02-22T20:22:27.916Z,91.43
2018-02-22T20:24:53.793Z,90.90
2018-02-22T20:27:19.547Z,90.85
2018-02-22T20:29:45.480Z,90.79
2018-02-22T20:32:11.282Z,90.68
2018-02-22T20:34:37.048Z,90.76
2018-02-22T20:37:03.202Z,90.85
2018-02-22T20:39:29.251Z,90.98
2018-02-22T20:41:55.298Z,90.90
2018-02-22T20:44:21.602Z,91.15
2018-02-22T20:46:47.617Z,91.40
2018-02-22T20:49:14.147Z,91.05
2018-02-22T20:51:41.098Z,91.12
2018-02-22T20:54:07.242Z,90.73
2018-02-22T20:56:33.211Z,91.03
2018-02-22T20:58:58.992Z,90.77
2018-02-22T21:01:24.801Z,90.56
2018-02-22T21:03:50.571Z,90.51
2018-02-22T21:06:16.344Z,90.55
2018-02-22T21:08:42.103Z,90.55
2018-02-22T21:11:07.880Z,90.73
2018-02-22T21:13:33.630Z,90.57
2018-02-22T21:16:01.002Z,90.57
2018-02-22T21:18:26.978Z,90.62
2018-02-22T21:20:52.769Z,90.41
2018-02-22T21:23:18.536Z,90.46
2018-02-22T21:25:44.309Z,90.32
2018-02-22T21:28:10.068Z,90.29
2018-02-22T21:30:36.210Z,90.38
2018-02-22T21:33:02.000Z,90.45
2018-02-22T21:35:27.927Z,90.41
2018-02-22T21:37:53.683Z,90.54
2018-02-22T21:40:19.525Z,90.36
2018-02-22T21:42:45.329Z,90.31
2018-02-22T21:45:11.072Z,90.52
2018-02-22T21:47:36.822Z,90.59
2018-02-22T21:50:02.587Z,90.58
2018-02-22T21:52:28.364Z,90.60
2018-02-22T21:54:54.263Z,90.69
2018-02-22T21:57:20.031Z,90.81
2018-02-22T21:59:45.803Z,90.76
2018-02-22T22:02:11.579Z,90.81
2018-02-22T22:04:37.331Z,90.72
2018-02-22T22:07:03.108Z,90.83
2018-02-22T22:09:29.852Z,90.74
2018-02-22T22:11:55.615Z,90.90
2018-02-22T22:14:21.418Z,90.77
2018-02-22T22:16:47.230Z,90.87
2018-02-22T22:19:12.990Z,90.95
2018-02-22T22:21:38.759Z,90.92
2018-02-22T22:24:04.512Z,91.09
2018-02-22T22:26:30.262Z,90.93
2018-02-22T22:28:56.040Z,90.87
2018-02-22T22:31:21.787Z,90.86
2018-02-22T22:33:47.560Z,90.81
2018-02-22T22:36:13.323Z,90.74
2018-02-22T22:38:39.090Z,90.94
2018-02-22T22:41:04.869Z,90.88
2018-02-22T22:43:30.657Z,90.89
2018-02-22T22:45:56.503Z,90.70
2018-02-22T22:48:22.298Z,90.61
2018-02-22T22:50:48.060Z,90.59
2018-02-22T22:53:13.841Z,90.52
2018-02-22T22:55:39.600Z,90.38
2018-02-22T22:58:05.411Z,90.32
2018-02-22T23:00:31.303Z,90.54
2018-02-22T23:02:57.107Z,90.55
2018-02-22T23:05:22.869Z,90.60
2018-02-22T23:07:48.622Z,90.47
2018-02-22T23:10:14.387Z,90.68
2018-02-22T23:12:40.157Z,90.45
2018-02-22T23:15:05.938Z,90.44
2018-02-22T23:17:31.719Z,90.44
2018-02-22T23:19:57.531Z,90.20
2018-02-22T23:22:23.440Z,90.47
2018-02-22T23:24:49.192Z,90.57
2018-02-22T23:27:14.965Z,90.72
2018-02-22T23:29:40.735Z,90.67
2018-02-22T23:32:06.500Z,90.69
2018-02-22T23:34:32.311Z,90.70
2018-02-22T23:36:58.098Z,90.67
2018-02-22T23:39:23.932Z,90.60
2018-02-22T23:41:55.987Z,90.72
2018-02-22T23:44:21.755Z,90.63
2018-02-22T23:46:47.528Z,90.49
2018-02-22T23:49:13.304Z,90.59
2018-02-22T23:51:39.073Z,90.57
2018-02-22T23:54:04.862Z,90.47
2018-02-22T23:56:30.725Z,90.42
2018-02-22T23:58:56.459Z,90.59
